createdAt,value
2018-07-26T00:01:33.114Z,26.00
2018-07-26T00:04:05.591Z,26.00
2018-07-26T00:06:37.211Z,25.90
2018-07-26T00:09:11.531Z,25.80
2018-07-26T00:11:43.051Z,25.70
2018-07-26T00:14:15.032Z,25.60
2018-07-26T00:16:46.391Z,25.50
2018-07-26T00:19:18.032Z,25.50
2018-07-26T00:21:49.591Z,25.50
2018-07-26T00:24:21.291Z,25.50
2018-07-26T00:26:53.651Z,25.50
2018-07-26T00:29:25.191Z,25.40
2018-07-26T00:31:57.375Z,25.30
2018-07-26T00:34:29.812Z,25.30
2018-07-26T00:37:01.356Z,25.20
2018-07-26T00:39:33.212Z,25.20
2018-07-26T00:42:05.015Z,25.10
2018-07-26T00:44:37.531Z,25.10
2018-07-26T00:47:08.772Z,25.00
2018-07-26T00:49:41.672Z,25.00
2018-07-26T00:52:13.272Z,24.90
2018-07-26T00:54:45.632Z,24.90
2018-07-26T00:57:17.171Z,24.90
2018-07-26T00:59:48.951Z,24.90
2018-07-26T01:02:20.951Z,24.80
2018-07-26T01:04:53.151Z,24.80
2018-07-26T01:07:25.631Z,24.70
2018-07-26T01:09:57.731Z,24.70
2018-07-26T01:12:29.292Z,24.70
2018-07-26T01:15:00.852Z,24.60
2018-07-26T01:17:33.012Z,24.50
2018-07-26T01:20:05.591Z,24.50
2018-07-26T01:22:37.731Z,24.40
2018-07-26T01:25:09.031Z,24.40
2018-07-26T01:27:40.631Z,24.40
2018-07-26T01:30:12.812Z,24.40
2018-07-26T01:32:45.731Z,24.30
2018-07-26T01:35:17.351Z,24.40
2018-07-26T01:37:50.371Z,24.30
2018-07-26T01:40:22.192Z,24.40
2018-07-26T01:43:04.691Z,24.40
2018-07-26T01:45:36.971Z,24.30
2018-07-26T01:48:08.711Z,24.20
2018-07-26T01:50:40.051Z,24.20
2018-07-26T01:53:11.831Z,24.20
2018-07-26T01:55:44.151Z,24.10
2018-07-26T01:58:16.572Z,24.10
2018-07-26T02:00:48.691Z,24.00
2018-07-26T02:03:20.631Z,24.00
2018-07-26T02:05:53.431Z,24.00
2018-07-26T02:08:25.013Z,23.90
2018-07-26T02:10:56.593Z,23.80
2018-07-26T02:13:27.931Z,23.80
2018-07-26T02:16:00.132Z,23.80
2018-07-26T02:18:31.791Z,23.80
2018-07-26T02:21:03.833Z,23.70
2018-07-26T02:23:35.672Z,23.70
2018-07-26T02:26:07.931Z,23.70
2018-07-26T02:28:40.431Z,23.70
2018-07-26T02:31:11.936Z,23.70
2018-07-26T02:33:44.112Z,23.70
2018-07-26T02:36:15.851Z,23.60
2018-07-26T02:38:47.691Z,23.60
2018-07-26T02:41:19.413Z,23.60
2018-07-26T02:43:51.852Z,23.60
2018-07-26T02:46:23.572Z,23.50
2018-07-26T02:48:55.591Z,23.50
2018-07-26T02:51:27.431Z,23.40
2018-07-26T02:53:59.192Z,23.40
2018-07-26T02:56:31.658Z,23.40
2018-07-26T02:59:03.573Z,23.40
2018-07-26T03:01:35.732Z,23.40
2018-07-26T03:04:08.372Z,23.40
2018-07-26T03:06:40.296Z,23.30
2018-07-26T03:09:11.509Z,23.30
2018-07-26T03:11:43.253Z,23.20
2018-07-26T03:14:16.052Z,23.30
2018-07-26T03:16:47.191Z,23.30
2018-07-26T03:19:18.711Z,23.30
2018-07-26T03:21:50.551Z,23.30
2018-07-26T03:24:22.493Z,23.20
2018-07-26T03:26:54.651Z,23.20
2018-07-26T03:29:26.711Z,23.10
2018-07-26T03:31:58.551Z,23.10
2018-07-26T03:34:31.151Z,23.00
2018-07-26T03:37:03.595Z,23.00
2018-07-26T03:39:35.191Z,23.00
2018-07-26T03:42:07.475Z,22.90
2018-07-26T03:44:39.291Z,22.90
2018-07-26T03:47:11.191Z,22.80
2018-07-26T03:49:43.652Z,22.80
2018-07-26T03:52:15.271Z,22.80
2018-07-26T03:54:46.771Z,22.80
2018-07-26T03:57:19.191Z,22.70
2018-07-26T03:59:51.413Z,22.80
2018-07-26T04:02:23.031Z,22.80
2018-07-26T04:04:55.596Z,22.80
2018-07-26T04:07:27.191Z,22.80
2018-07-26T04:09:59.571Z,22.80
2018-07-26T04:12:31.731Z,22.80
2018-07-26T04:15:03.472Z,22.80
2018-07-26T04:17:35.871Z,22.80
2018-07-26T04:20:07.566Z,22.80
2018-07-26T04:22:38.952Z,22.70
2018-07-26T04:25:10.193Z,22.80
2018-07-26T04:27:41.632Z,22.80
2018-07-26T04:30:12.852Z,22.80
2018-07-26T04:32:44.313Z,22.90
2018-07-26T04:35:16.811Z,22.90
2018-07-26T04:37:48.531Z,22.90
2018-07-26T04:40:20.997Z,22.90
2018-07-26T04:42:52.538Z,22.90
2018-07-26T04:45:25.097Z,22.90
2018-07-26T04:47:57.437Z,22.90
2018-07-26T04:50:29.877Z,22.80
2018-07-26T04:53:01.597Z,22.80
2018-07-26T04:55:34.006Z,22.80
2018-07-26T04:58:05.377Z,22.70
2018-07-26T05:00:37.337Z,22.70
2018-07-26T05:03:09.377Z,22.70
2018-07-26T05:05:41.497Z,22.70
2018-07-26T05:08:13.412Z,22.70
2018-07-26T05:10:46.017Z,22.70
2018-07-26T05:13:18.759Z,22.70
2018-07-26T05:15:50.437Z,22.70
2018-07-26T05:18:22.985Z,22.80
2018-07-26T05:20:55.828Z,22.80
2018-07-26T05:23:27.337Z,22.80
2018-07-26T05:25:59.637Z,22.80
2018-07-26T05:28:31.877Z,22.70
2018-07-26T05:31:03.277Z,22.80
2018-07-26T05:33:35.757Z,22.90
2018-07-26T05:36:07.418Z,23.00
2018-07-26T05:38:39.637Z,23.10
2018-07-26T05:41:12.038Z,23.10
2018-07-26T05:43:44.597Z,23.10
2018-07-26T05:46:17.584Z,23.20
2018-07-26T05:48:49.097Z,23.20
2018-07-26T05:51:20.737Z,23.40
2018-07-26T05:53:52.657Z,23.50
2018-07-26T05:56:24.677Z,23.60
2018-07-26T05:58:55.917Z,23.70
2018-07-26T06:01:28.257Z,23.80
2018-07-26T06:03:59.097Z,23.90
2018-07-26T06:06:31.097Z,24.00
2018-07-26T06:09:04.181Z,24.10
2018-07-26T06:11:36.157Z,24.20
2018-07-26T06:14:10.077Z,24.30
2018-07-26T06:16:42.577Z,24.40
2018-07-26T06:19:14.997Z,24.50
2018-07-26T06:21:47.497Z,24.50
2018-07-26T06:24:19.997Z,24.70
2018-07-26T06:26:52.278Z,24.70
2018-07-26T06:29:23.996Z,24.80
2018-07-26T06:31:56.359Z,24.90
2018-07-26T06:34:27.497Z,24.90
2018-07-26T06:36:59.404Z,25.00
2018-07-26T06:39:31.105Z,25.20
2018-07-26T06:42:03.319Z,25.30
2018-07-26T06:44:34.938Z,25.40
2018-07-26T06:47:06.697Z,25.50
2018-07-26T06:49:38.998Z,25.60
2018-07-26T06:52:10.903Z,25.80
2018-07-26T06:54:42.717Z,25.80
2018-07-26T06:57:15.300Z,25.90
2018-07-26T06:59:47.537Z,26.10
2018-07-26T07:02:19.039Z,26.10
2018-07-26T07:04:51.637Z,26.20
2018-07-26T07:07:22.717Z,26.30
2018-07-26T07:09:54.578Z,26.40
2018-07-26T07:12:26.439Z,26.40
2018-07-26T07:14:58.617Z,26.50
2018-07-26T07:17:30.303Z,26.50
2018-07-26T07:20:02.262Z,26.60
2018-07-26T07:22:33.463Z,26.60
2018-07-26T07:25:05.871Z,26.70
2018-07-26T07:27:37.302Z,26.60
2018-07-26T07:30:11.045Z,26.80
2018-07-26T07:32:43.622Z,26.80
2018-07-26T07:35:15.222Z,26.90
2018-07-26T07:37:46.803Z,27.00
2018-07-26T07:40:18.762Z,27.00
2018-07-26T07:42:50.942Z,27.00
2018-07-26T07:45:22.923Z,27.10
2018-07-26T07:47:54.303Z,27.20
2018-07-26T07:50:25.474Z,27.20
2018-07-26T07:52:57.648Z,27.30
2018-07-26T07:55:29.662Z,27.40
2018-07-26T07:58:01.285Z,27.40
2018-07-26T08:00:33.324Z,27.40
2018-07-26T08:03:05.443Z,27.40
2018-07-26T08:05:36.942Z,27.50
2018-07-26T08:08:08.306Z,27.50
2018-07-26T08:10:40.822Z,27.50
2018-07-26T08:13:11.942Z,27.60
2018-07-26T08:15:43.421Z,27.70
2018-07-26T08:18:15.102Z,27.80
2018-07-26T08:20:47.462Z,27.80
2018-07-26T08:23:19.472Z,27.80
2018-07-26T08:25:51.337Z,27.90
2018-07-26T08:28:22.561Z,27.90
2018-07-26T08:30:54.187Z,27.80
2018-07-26T08:33:26.656Z,27.80
2018-07-26T08:35:58.755Z,27.80
2018-07-26T08:38:30.522Z,27.90
2018-07-26T08:41:02.574Z,28.00
2018-07-26T08:43:34.131Z,28.20
2018-07-26T08:46:05.896Z,28.20
2018-07-26T08:48:37.239Z,28.10
2018-07-26T08:51:09.416Z,28.10
2018-07-26T08:53:41.137Z,28.10
2018-07-26T08:56:13.136Z,28.10
2018-07-26T08:58:45.136Z,28.00
2018-07-26T09:03:47.526Z,28.00
2018-07-26T09:06:19.606Z,28.00
2018-07-26T09:08:51.408Z,28.00
2018-07-26T09:11:24.169Z,28.10
2018-07-26T09:13:55.907Z,28.10
2018-07-26T09:16:28.288Z,28.20
2018-07-26T09:18:59.526Z,28.20
2018-07-26T09:21:31.886Z,28.30
2018-07-26T09:24:04.047Z,28.40
2018-07-26T09:26:35.777Z,28.30
2018-07-26T09:29:07.677Z,28.30
2018-07-26T09:31:39.717Z,28.40
2018-07-26T09:34:11.356Z,28.50
2018-07-26T09:36:43.277Z,28.40
2018-07-26T09:39:16.637Z,28.30
2018-07-26T09:41:49.017Z,28.30
2018-07-26T09:44:20.580Z,28.40
2018-07-26T09:46:52.717Z,28.50
2018-07-26T09:49:23.485Z,28.50
2018-07-26T09:51:55.712Z,28.40
2018-07-26T09:54:28.231Z,28.50
2018-07-26T09:57:00.311Z,28.40
2018-07-26T09:59:31.891Z,28.30
2018-07-26T10:02:04.209Z,28.20
2018-07-26T10:04:36.348Z,28.20
2018-07-26T10:07:09.275Z,28.20
2018-07-26T10:09:41.250Z,28.10
2018-07-26T10:12:13.709Z,28.20
2018-07-26T10:14:45.470Z,28.10
2018-07-26T10:17:17.170Z,28.20
2018-07-26T10:19:48.589Z,28.10
2018-07-26T10:22:20.210Z,28.10
2018-07-26T10:24:51.850Z,28.30
2018-07-26T10:27:23.228Z,28.30
2018-07-26T10:29:55.389Z,28.30
2018-07-26T10:32:26.648Z,28.20
2018-07-26T10:34:58.549Z,28.20
2018-07-26T10:37:30.328Z,28.40
2018-07-26T10:40:02.350Z,28.50
2018-07-26T10:42:33.948Z,28.50
2018-07-26T10:45:06.069Z,28.40
2018-07-26T10:47:37.988Z,28.30
2018-07-26T10:50:11.688Z,28.20
2018-07-26T10:52:42.948Z,28.20
2018-07-26T10:55:14.469Z,28.20
2018-07-26T10:57:46.548Z,28.30
2018-07-26T11:00:18.094Z,28.60
2018-07-26T11:02:49.934Z,29.00
2018-07-26T11:05:23.477Z,28.90
2018-07-26T11:07:54.966Z,28.80
2018-07-26T11:10:26.346Z,28.70
2018-07-26T11:12:58.066Z,28.60
2018-07-26T11:15:34.231Z,28.80
2018-07-26T11:18:06.248Z,29.20
2018-07-26T11:20:38.547Z,29.40
2018-07-26T11:23:10.346Z,29.40
2018-07-26T11:25:41.972Z,29.10
2018-07-26T11:28:14.146Z,29.30
2018-07-26T11:30:46.106Z,29.60
2018-07-26T11:33:18.866Z,29.70
2018-07-26T11:35:51.434Z,29.80
2018-07-26T11:38:23.827Z,30.00
2018-07-26T11:40:55.826Z,30.40
2018-07-26T11:43:28.366Z,30.60
2018-07-26T11:45:59.809Z,30.90
2018-07-26T11:48:32.192Z,31.00
2018-07-26T11:51:04.210Z,31.10
2018-07-26T11:53:36.364Z,31.40
2018-07-26T11:56:07.810Z,31.50
2018-07-26T11:58:40.190Z,31.60
2018-07-26T12:01:12.449Z,31.70
2018-07-26T12:03:44.769Z,31.80
2018-07-26T12:06:17.830Z,31.80
2018-07-26T12:08:49.083Z,31.60
2018-07-26T12:11:20.345Z,31.70
2018-07-26T12:13:51.157Z,32.00
2018-07-26T12:16:24.137Z,32.30
2018-07-26T12:18:55.898Z,32.40
2018-07-26T12:21:28.397Z,32.60
2018-07-26T12:24:00.138Z,32.80
2018-07-26T12:26:31.723Z,33.00
2018-07-26T12:29:04.299Z,33.20
2018-07-26T12:31:37.037Z,33.30
2018-07-26T12:34:08.792Z,33.50
2018-07-26T12:36:39.991Z,33.50
2018-07-26T12:39:13.491Z,33.60
2018-07-26T12:41:46.433Z,33.40
2018-07-26T12:44:18.133Z,33.10
2018-07-26T12:46:49.771Z,32.80
2018-07-26T12:49:21.011Z,32.60
2018-07-26T12:51:53.377Z,32.80
2018-07-26T12:54:25.214Z,32.90
2018-07-26T12:56:56.691Z,33.10
2018-07-26T12:59:29.195Z,33.20
2018-07-26T13:02:02.332Z,33.10
2018-07-26T13:04:33.311Z,33.30
2018-07-26T13:07:06.584Z,33.60
2018-07-26T13:09:38.111Z,33.80
2018-07-26T13:12:10.572Z,33.90
2018-07-26T13:14:42.109Z,33.90
2018-07-26T13:17:15.091Z,33.70
2018-07-26T13:19:46.491Z,33.60
2018-07-26T13:22:19.071Z,33.80
2018-07-26T13:24:51.211Z,34.10
2018-07-26T13:27:22.951Z,34.10
2018-07-26T13:29:55.031Z,33.90
2018-07-26T13:32:27.111Z,33.70
2018-07-26T13:34:58.731Z,33.50
2018-07-26T13:37:30.551Z,33.50
2018-07-26T13:40:01.978Z,33.50
2018-07-26T13:42:34.378Z,33.50
2018-07-26T13:45:06.081Z,33.40
2018-07-26T13:47:37.990Z,33.30
2018-07-26T13:50:09.598Z,33.50
2018-07-26T13:52:41.615Z,33.30
2018-07-26T13:55:13.963Z,33.10
2018-07-26T13:57:46.292Z,33.00
2018-07-26T14:00:16.182Z,33.10
2018-07-26T14:02:47.822Z,33.30
2018-07-26T14:05:19.441Z,33.50
2018-07-26T14:07:51.184Z,33.70
2018-07-26T14:10:23.422Z,33.80
2018-07-26T14:12:54.863Z,33.90
2018-07-26T14:15:27.145Z,34.00
2018-07-26T14:17:59.184Z,34.20
2018-07-26T14:20:30.468Z,34.30
2018-07-26T14:23:02.732Z,34.50
2018-07-26T14:25:34.863Z,34.80
2018-07-26T14:28:06.361Z,34.60
2018-07-26T14:30:38.469Z,34.60
2018-07-26T14:33:10.704Z,34.60
2018-07-26T14:35:43.364Z,34.60
2018-07-26T14:38:14.554Z,34.60
2018-07-26T14:40:46.704Z,34.70
2018-07-26T14:43:18.824Z,34.70
2018-07-26T14:45:51.124Z,34.80
2018-07-26T14:48:22.763Z,34.80
2018-07-26T14:50:53.958Z,34.80
2018-07-26T14:53:25.144Z,34.80
2018-07-26T14:55:56.824Z,34.90
2018-07-26T14:58:29.120Z,34.90
2018-07-26T15:01:01.269Z,34.80
2018-07-26T15:03:33.153Z,34.70
2018-07-26T15:06:05.139Z,34.50
2018-07-26T15:08:36.901Z,34.30
2018-07-26T15:11:09.520Z,34.00
2018-07-26T15:13:40.957Z,33.80
2018-07-26T15:16:13.336Z,33.70
2018-07-26T15:18:45.461Z,33.60
2018-07-26T15:21:17.456Z,33.50
2018-07-26T15:23:48.975Z,33.30
2018-07-26T15:26:20.813Z,33.00
2018-07-26T15:28:52.375Z,33.00
2018-07-26T15:31:24.315Z,33.00
2018-07-26T15:33:56.356Z,32.90
2018-07-26T15:36:27.638Z,32.80
2018-07-26T15:38:59.615Z,32.70
2018-07-26T15:41:31.301Z,32.50
2018-07-26T15:44:03.236Z,32.50
2018-07-26T15:46:35.536Z,32.40
2018-07-26T15:49:08.317Z,32.30
2018-07-26T15:51:40.457Z,32.30
2018-07-26T15:54:12.416Z,32.20
2018-07-26T15:56:45.616Z,32.10
2018-07-26T15:59:16.316Z,32.10
2018-07-26T16:01:48.097Z,32.10
2018-07-26T16:04:19.636Z,32.00
2018-07-26T16:06:51.756Z,32.00
2018-07-26T16:09:23.998Z,31.90
2018-07-26T16:11:55.558Z,31.80
2018-07-26T16:14:27.797Z,31.60
2018-07-26T16:16:59.876Z,31.60
2018-07-26T16:19:31.296Z,31.70
2018-07-26T16:22:04.497Z,31.60
2018-07-26T16:24:35.827Z,31.60
2018-07-26T16:27:07.897Z,31.60
2018-07-26T16:29:39.936Z,31.60
2018-07-26T16:32:11.835Z,31.60
2018-07-26T16:34:43.636Z,31.60
2018-07-26T16:37:15.456Z,31.60
2018-07-26T16:39:48.261Z,31.40
2018-07-26T16:42:20.321Z,31.40
2018-07-26T16:44:51.617Z,31.40
2018-07-26T16:47:23.576Z,31.30
2018-07-26T16:49:55.916Z,31.30
2018-07-26T16:52:27.936Z,31.30
2018-07-26T16:54:59.797Z,31.30
2018-07-26T16:57:31.343Z,31.20
2018-07-26T17:00:03.416Z,31.20
2018-07-26T17:02:35.078Z,31.20
2018-07-26T17:05:07.856Z,31.20
2018-07-26T17:07:39.438Z,31.20
2018-07-26T17:10:11.997Z,31.10
2018-07-26T17:12:43.477Z,31.00
2018-07-26T17:15:15.616Z,31.00
2018-07-26T17:17:47.896Z,31.00
2018-07-26T17:20:19.556Z,31.00
2018-07-26T17:22:51.298Z,30.80
2018-07-26T17:25:25.736Z,30.70
2018-07-26T17:27:58.016Z,30.70
2018-07-26T17:30:30.056Z,30.70
2018-07-26T17:33:01.917Z,30.70
2018-07-26T17:35:33.998Z,30.60
2018-07-26T17:38:06.196Z,30.70
2018-07-26T17:40:37.916Z,30.70
2018-07-26T17:43:10.576Z,30.70
2018-07-26T17:45:42.317Z,30.60
2018-07-26T17:48:15.456Z,30.60
2018-07-26T17:50:47.036Z,30.50
2018-07-26T17:53:18.396Z,30.40
2018-07-26T17:55:50.095Z,30.40
2018-07-26T17:58:21.756Z,30.40
2018-07-26T18:00:53.916Z,30.40
2018-07-26T18:03:26.816Z,30.40
2018-07-26T18:05:58.419Z,30.30
2018-07-26T18:08:30.556Z,30.30
2018-07-26T18:11:03.276Z,30.20
2018-07-26T18:13:35.017Z,30.10
2018-07-26T18:16:07.836Z,30.10
2018-07-26T18:18:39.835Z,30.10
2018-07-26T18:21:12.463Z,30.10
2018-07-26T18:23:44.658Z,30.00
2018-07-26T18:26:16.476Z,30.00
2018-07-26T18:28:49.161Z,30.00
2018-07-26T18:31:20.481Z,30.00
2018-07-26T18:33:52.885Z,30.00
2018-07-26T18:36:24.605Z,29.90
2018-07-26T18:38:57.450Z,29.90
2018-07-26T18:41:28.284Z,29.90
2018-07-26T18:44:00.945Z,29.80
2018-07-26T18:46:31.865Z,29.80
2018-07-26T18:49:04.245Z,29.80
2018-07-26T18:51:36.165Z,29.70
2018-07-26T18:54:08.715Z,29.60
2018-07-26T18:56:40.805Z,29.60
2018-07-26T18:59:12.784Z,29.50
2018-07-26T19:01:44.944Z,29.50
2018-07-26T19:04:17.664Z,29.40
2018-07-26T19:06:49.184Z,29.30
2018-07-26T19:09:21.124Z,29.30
2018-07-26T19:11:53.224Z,29.20
2018-07-26T19:14:24.747Z,29.20
2018-07-26T19:16:56.608Z,29.00
2018-07-26T19:19:28.966Z,29.10
2018-07-26T19:22:00.670Z,29.00
2018-07-26T19:24:32.165Z,28.90
2018-07-26T19:29:35.349Z,28.80
2018-07-26T19:32:08.105Z,28.80
2018-07-26T19:34:40.125Z,28.70
2018-07-26T19:37:13.028Z,28.60
2018-07-26T19:39:45.130Z,28.60
2018-07-26T19:42:17.664Z,28.60
2018-07-26T19:44:50.965Z,28.50
2018-07-26T19:47:22.425Z,28.50
2018-07-26T19:49:54.624Z,28.50
2018-07-26T19:52:25.885Z,28.40
2018-07-26T19:54:57.945Z,28.50
2018-07-26T19:57:30.345Z,28.40
2018-07-26T20:00:02.366Z,28.40
2018-07-26T20:02:34.885Z,28.30
2018-07-26T20:05:06.725Z,28.30
2018-07-26T20:07:39.487Z,28.30
2018-07-26T20:10:13.609Z,28.30
2018-07-26T20:12:45.744Z,28.20
2018-07-26T20:15:17.945Z,28.20
2018-07-26T20:17:50.385Z,28.20
2018-07-26T20:20:22.485Z,28.20
2018-07-26T20:22:56.165Z,28.20
2018-07-26T20:25:28.544Z,28.20
2018-07-26T20:28:01.504Z,28.10
2018-07-26T20:30:34.289Z,28.00
2018-07-26T20:33:06.365Z,28.00
2018-07-26T20:35:38.526Z,28.00
2018-07-26T20:38:10.065Z,27.90
2018-07-26T20:40:42.806Z,27.90
2018-07-26T20:43:14.612Z,27.90
2018-07-26T20:45:46.285Z,27.90
2018-07-26T20:48:18.913Z,27.80
2018-07-26T20:50:50.759Z,27.80
2018-07-26T20:53:22.864Z,27.80
2018-07-26T20:55:55.046Z,27.80
2018-07-26T20:58:28.006Z,27.80
2018-07-26T21:01:00.607Z,27.80
2018-07-26T21:03:32.685Z,27.90
2018-07-26T21:06:04.825Z,27.90
2018-07-26T21:08:36.945Z,28.00
2018-07-26T21:11:09.705Z,27.90
2018-07-26T21:13:41.305Z,27.90
2018-07-26T21:16:12.965Z,27.80
2018-07-26T21:18:44.508Z,27.80
2018-07-26T21:21:16.765Z,27.80
2018-07-26T21:23:48.685Z,27.80
2018-07-26T21:26:20.328Z,27.80
2018-07-26T21:28:52.398Z,27.80
2018-07-26T21:31:24.720Z,27.80
2018-07-26T21:33:56.538Z,27.80
2018-07-26T21:36:28.840Z,27.60
2018-07-26T21:39:00.493Z,27.60
2018-07-26T21:41:32.678Z,27.60
2018-07-26T21:44:04.639Z,27.70
2018-07-26T21:46:36.658Z,27.60
2018-07-26T21:49:08.578Z,27.60
2018-07-26T21:51:40.458Z,27.50
2018-07-26T21:54:12.938Z,27.60
2018-07-26T21:56:44.578Z,27.60
2018-07-26T21:59:17.062Z,27.50
2018-07-26T22:01:48.580Z,27.50
2018-07-26T22:04:21.198Z,27.50
2018-07-26T22:06:53.198Z,27.40
2018-07-26T22:09:25.818Z,27.50
2018-07-26T22:11:57.540Z,27.40
2018-07-26T22:14:29.438Z,27.30
2018-07-26T22:17:01.038Z,27.30
2018-07-26T22:19:32.640Z,27.30
2018-07-26T22:22:05.004Z,27.20
2018-07-26T22:24:36.978Z,27.10
2018-07-26T22:27:09.359Z,27.00
2018-07-26T22:29:41.538Z,27.00
2018-07-26T22:32:13.278Z,26.90
2018-07-26T22:34:45.838Z,26.80
2018-07-26T22:37:17.538Z,26.80
2018-07-26T22:39:49.798Z,26.70
2018-07-26T22:42:21.298Z,26.60
2018-07-26T22:44:52.198Z,26.50
2018-07-26T22:47:24.178Z,26.40
2018-07-26T22:49:56.340Z,26.30
2018-07-26T22:52:28.018Z,26.30
2018-07-26T22:54:59.958Z,26.30
2018-07-26T22:57:31.658Z,26.30
2018-07-26T23:00:03.898Z,26.30
2018-07-26T23:02:35.458Z,26.20
2018-07-26T23:05:07.518Z,26.20
2018-07-26T23:07:39.278Z,26.10
2018-07-26T23:12:43.177Z,26.00
2018-07-26T23:15:15.617Z,25.90
2018-07-26T23:17:47.238Z,25.90
2018-07-26T23:20:19.437Z,26.00
2018-07-26T23:22:55.457Z,25.90
2018-07-26T23:25:26.599Z,25.90
2018-07-26T23:27:58.420Z,25.80
2018-07-26T23:30:29.957Z,25.80
2018-07-26T23:33:01.718Z,25.70
2018-07-26T23:35:33.978Z,25.60
2018-07-26T23:38:05.617Z,25.50
2018-07-26T23:40:37.997Z,25.40
2018-07-26T23:43:10.457Z,25.40
2018-07-26T23:45:42.217Z,25.40
2018-07-26T23:48:14.339Z,25.40
2018-07-26T23:50:46.277Z,25.30
2018-07-26T23:53:17.978Z,25.20
2018-07-26T23:55:49.697Z,25.20
2018-07-26T23:58:21.578Z,25.20
